createdAt,value
2019-01-27T00:00:52.143Z,1011.27
2019-01-27T00:01:52.130Z,1011.3
2019-01-27T00:02:52.116Z,1011.31
2019-01-27T00:03:52.103Z,1011.27
2019-01-27T00:04:52.090Z,1011.25
2019-01-27T00:05:52.077Z,1011.23
2019-01-27T00:06:52.065Z,1011.2
2019-01-27T00:07:52.051Z,1011.2
2019-01-27T00:08:52.038Z,1011.14
2019-01-27T00:09:52.025Z,1011.17
2019-01-27T00:10:52.013Z,1011.14
2019-01-27T00:11:51.998Z,1011.11
2019-01-27T00:12:51.984Z,1011.11
2019-01-27T00:13:51.971Z,1011.12
2019-01-27T00:14:51.956Z,1011.15
2019-01-27T00:15:51.944Z,1011.16
2019-01-27T00:16:51.932Z,1011.1
2019-01-27T00:17:51.917Z,1011.14
2019-01-27T00:18:51.904Z,1011.15
2019-01-27T00:19:51.891Z,1011.15
2019-01-27T00:20:51.878Z,1011.09
2019-01-27T00:21:51.864Z,1011.16
2019-01-27T00:22:51.851Z,1011.17
2019-01-27T00:23:51.838Z,1011.18
2019-01-27T00:24:51.824Z,1011.14
2019-01-27T00:25:51.811Z,1011.16
2019-01-27T00:26:51.796Z,1011.12
2019-01-27T00:27:51.784Z,1011.13
2019-01-27T00:28:51.770Z,1011.16
2019-01-27T00:29:51.757Z,1011.14
2019-01-27T00:30:51.744Z,1011.09
2019-01-27T00:31:51.731Z,1011.07
2019-01-27T00:32:51.717Z,1011.07
2019-01-27T00:33:51.704Z,1011.09
2019-01-27T00:34:51.690Z,1011.02
2019-01-27T00:35:51.677Z,1011.05
2019-01-27T00:36:51.661Z,1011.06
2019-01-27T00:37:51.649Z,1011.03
2019-01-27T00:38:51.637Z,1011.02
2019-01-27T00:39:51.622Z,1011
2019-01-27T00:40:51.609Z,1010.96
2019-01-27T00:41:51.596Z,1010.98
2019-01-27T00:42:51.585Z,1010.97
2019-01-27T00:43:51.568Z,1010.94
2019-01-27T00:44:51.554Z,1010.95
2019-01-27T00:45:51.542Z,1010.88
2019-01-27T00:46:51.529Z,1010.88
2019-01-27T00:47:51.514Z,1010.87
2019-01-27T00:48:51.500Z,1010.81
2019-01-27T00:49:51.487Z,1010.8
2019-01-27T00:50:51.473Z,1010.79
2019-01-27T00:51:51.461Z,1010.77
2019-01-27T00:52:51.448Z,1010.79
2019-01-27T00:53:51.435Z,1010.81
2019-01-27T00:54:51.421Z,1010.79
2019-01-27T00:55:51.408Z,1010.77
2019-01-27T00:56:51.394Z,1010.81
2019-01-27T00:57:51.385Z,1010.79
2019-01-27T00:58:51.367Z,1010.73
2019-01-27T00:59:51.355Z,1010.74
2019-01-27T01:00:51.341Z,1010.71
2019-01-27T01:01:51.328Z,1010.72
2019-01-27T01:02:51.316Z,1010.75
2019-01-27T01:03:51.299Z,1010.71
2019-01-27T01:04:51.287Z,1010.72
2019-01-27T01:05:51.272Z,1010.72
2019-01-27T01:06:51.260Z,1010.69
2019-01-27T01:07:51.247Z,1010.7
2019-01-27T01:08:51.232Z,1010.7
2019-01-27T01:09:51.218Z,1010.71
2019-01-27T01:10:51.207Z,1010.68
2019-01-27T01:11:51.193Z,1010.68
2019-01-27T01:12:51.177Z,1010.7
2019-01-27T01:13:51.164Z,1010.66
2019-01-27T01:14:51.151Z,1010.65
2019-01-27T01:15:51.137Z,1010.68
2019-01-27T01:16:51.124Z,1010.66
2019-01-27T01:17:51.118Z,1010.6
2019-01-27T01:18:51.098Z,1010.62
2019-01-27T01:19:51.085Z,1010.6
2019-01-27T01:20:51.070Z,1010.57
2019-01-27T01:21:51.056Z,1010.57
2019-01-27T01:22:51.044Z,1010.56
2019-01-27T01:23:51.029Z,1010.52
2019-01-27T01:24:51.015Z,1010.5
2019-01-27T01:25:51.007Z,1010.5
2019-01-27T01:26:50.990Z,1010.49
2019-01-27T01:27:50.975Z,1010.49
2019-01-27T01:28:50.962Z,1010.45
2019-01-27T01:29:50.949Z,1010.48
2019-01-27T01:30:50.942Z,1010.49
2019-01-27T01:31:50.921Z,1010.48
2019-01-27T01:32:50.909Z,1010.53
2019-01-27T01:33:50.895Z,1010.55
2019-01-27T01:34:50.880Z,1010.58
2019-01-27T01:35:50.869Z,1010.59
2019-01-27T01:36:50.854Z,1010.61
2019-01-27T01:37:50.840Z,1010.57
2019-01-27T01:38:50.826Z,1010.6
2019-01-27T01:39:50.813Z,1010.57
2019-01-27T01:40:50.798Z,1010.57
2019-01-27T01:41:50.786Z,1010.56
2019-01-27T01:42:50.772Z,1010.46
2019-01-27T01:43:50.758Z,1010.42
2019-01-27T01:44:50.746Z,1010.34
2019-01-27T01:45:50.731Z,1010.34
2019-01-27T01:46:50.718Z,1010.32
2019-01-27T01:47:50.705Z,1010.3
2019-01-27T01:48:50.693Z,1010.24
2019-01-27T01:49:50.679Z,1010.26
2019-01-27T01:50:50.663Z,1010.22
2019-01-27T01:51:50.651Z,1010.2
2019-01-27T01:52:50.635Z,1010.21
2019-01-27T01:53:50.621Z,1010.18
2019-01-27T01:54:50.608Z,1010.21
2019-01-27T01:55:50.594Z,1010.19
2019-01-27T01:56:50.580Z,1010.15
2019-01-27T01:57:50.567Z,1010.11
2019-01-27T01:58:50.553Z,1010.09
2019-01-27T01:59:50.539Z,1010.1
2019-01-27T02:00:50.525Z,1010.06
2019-01-27T02:01:50.511Z,1010.08
2019-01-27T02:02:50.498Z,1010.1
2019-01-27T02:03:50.483Z,1010.11
2019-01-27T02:04:50.469Z,1010.11
2019-01-27T02:05:50.456Z,1010.07
2019-01-27T02:06:50.441Z,1010.1
2019-01-27T02:07:50.427Z,1010.11
2019-01-27T02:08:50.414Z,1010.11
2019-01-27T02:09:50.400Z,1010.1
2019-01-27T02:10:50.389Z,1010.09
2019-01-27T02:11:50.375Z,1010.06
2019-01-27T02:12:50.358Z,1010.03
2019-01-27T02:13:50.344Z,1010.03
2019-01-27T02:14:50.329Z,1010.01
2019-01-27T02:15:50.317Z,1009.96
2019-01-27T02:16:50.303Z,1009.96
2019-01-27T02:17:50.289Z,1009.94
2019-01-27T02:18:50.274Z,1009.87
2019-01-27T02:19:50.260Z,1009.88
2019-01-27T02:20:50.248Z,1009.81
2019-01-27T02:21:50.235Z,1009.77
2019-01-27T02:22:50.220Z,1009.79
2019-01-27T02:23:50.206Z,1009.78
2019-01-27T02:24:50.192Z,1009.74
2019-01-27T02:25:50.176Z,1009.76
2019-01-27T02:26:50.161Z,1009.74
2019-01-27T02:27:50.148Z,1009.73
2019-01-27T02:28:50.138Z,1009.68
2019-01-27T02:29:50.121Z,1009.63
2019-01-27T02:30:50.107Z,1009.68
2019-01-27T02:31:50.092Z,1009.67
2019-01-27T02:32:50.080Z,1009.65
2019-01-27T02:33:50.064Z,1009.66
2019-01-27T02:34:50.052Z,1009.65
2019-01-27T02:35:50.038Z,1009.7
2019-01-27T02:36:50.021Z,1009.73
2019-01-27T02:37:50.008Z,1009.75
2019-01-27T02:38:49.995Z,1009.75
2019-01-27T02:39:49.984Z,1009.77
2019-01-27T02:40:49.973Z,1009.74
2019-01-27T02:41:49.952Z,1009.71
2019-01-27T02:42:49.939Z,1009.64
2019-01-27T02:43:49.924Z,1009.61
2019-01-27T02:44:49.910Z,1009.6
2019-01-27T02:45:49.900Z,1009.57
2019-01-27T02:46:49.882Z,1009.51
2019-01-27T02:47:49.869Z,1009.52
2019-01-27T02:48:49.854Z,1009.47
2019-01-27T02:49:49.842Z,1009.42
2019-01-27T02:50:49.824Z,1009.38
2019-01-27T02:51:49.811Z,1009.35
2019-01-27T02:52:49.796Z,1009.26
2019-01-27T02:53:49.783Z,1009.29
2019-01-27T02:54:49.769Z,1009.22
2019-01-27T02:55:49.754Z,1009.27
2019-01-27T02:56:49.740Z,1009.27
2019-01-27T02:57:49.727Z,1009.24
2019-01-27T02:58:49.715Z,1009.23
2019-01-27T02:59:49.703Z,1009.23
2019-01-27T03:00:49.683Z,1009.21
2019-01-27T03:01:49.669Z,1009.22
2019-01-27T03:02:49.664Z,1009.12
2019-01-27T03:03:49.640Z,1009.12
2019-01-27T03:04:49.626Z,1009.09
2019-01-27T03:05:49.612Z,1009.06
2019-01-27T03:06:49.597Z,1009.05
2019-01-27T03:07:49.582Z,1009.02
2019-01-27T03:08:49.569Z,1009.05
2019-01-27T03:09:49.555Z,1009.01
2019-01-27T03:10:49.542Z,1009.02
2019-01-27T03:11:49.528Z,1009
2019-01-27T03:12:49.512Z,1009.04
2019-01-27T03:13:49.496Z,1009.01
2019-01-27T03:14:49.483Z,1008.96
2019-01-27T03:15:49.472Z,1008.9
2019-01-27T03:16:49.455Z,1008.92
2019-01-27T03:17:49.442Z,1008.95
2019-01-27T03:18:49.428Z,1008.92
2019-01-27T03:19:49.413Z,1008.95
2019-01-27T03:20:49.400Z,1008.9
2019-01-27T03:21:49.384Z,1008.87
2019-01-27T03:22:49.370Z,1008.81
2019-01-27T03:23:49.356Z,1008.83
2019-01-27T03:24:49.343Z,1008.87
2019-01-27T03:25:49.331Z,1008.85
2019-01-27T03:26:49.313Z,1008.87
2019-01-27T03:27:49.298Z,1008.89
2019-01-27T03:28:49.284Z,1008.84
2019-01-27T03:29:49.302Z,1008.79
2019-01-27T03:30:49.260Z,1008.78
2019-01-27T03:31:49.242Z,1008.73
2019-01-27T03:32:49.228Z,1008.71
2019-01-27T03:33:49.213Z,1008.71
2019-01-27T03:34:49.199Z,1008.68
2019-01-27T03:35:49.184Z,1008.62
2019-01-27T03:36:49.173Z,1008.63
2019-01-27T03:37:49.156Z,1008.6
2019-01-27T03:38:49.141Z,1008.58
2019-01-27T03:39:49.127Z,1008.58
2019-01-27T03:40:49.113Z,1008.53
2019-01-27T03:41:49.099Z,1008.53
2019-01-27T03:42:49.084Z,1008.48
2019-01-27T03:43:49.070Z,1008.46
2019-01-27T03:44:49.056Z,1008.47
2019-01-27T03:45:49.043Z,1008.47
2019-01-27T03:46:49.027Z,1008.44
2019-01-27T03:47:49.016Z,1008.47
2019-01-27T03:48:48.999Z,1008.4
2019-01-27T03:49:48.984Z,1008.39
2019-01-27T03:50:48.973Z,1008.37
2019-01-27T03:51:48.962Z,1008.37
2019-01-27T03:52:48.941Z,1008.4
2019-01-27T03:53:48.926Z,1008.37
2019-01-27T03:54:48.916Z,1008.42
2019-01-27T03:55:48.901Z,1008.37
2019-01-27T03:56:48.886Z,1008.43
2019-01-27T03:57:48.870Z,1008.39
2019-01-27T03:58:48.856Z,1008.35
2019-01-27T03:59:48.842Z,1008.36
2019-01-27T04:00:48.827Z,1008.35
2019-01-27T04:01:48.814Z,1008.33
2019-01-27T04:02:48.799Z,1008.29
2019-01-27T04:03:48.787Z,1008.27
2019-01-27T04:04:48.771Z,1008.24
2019-01-27T04:05:48.757Z,1008.28
2019-01-27T04:06:48.743Z,1008.23
2019-01-27T04:07:48.729Z,1008.2
2019-01-27T04:08:48.714Z,1008.19
2019-01-27T04:09:48.700Z,1008.16
2019-01-27T04:10:48.685Z,1008.13
2019-01-27T04:11:48.671Z,1008.1
2019-01-27T04:12:48.657Z,1008.11
2019-01-27T04:13:48.643Z,1008.15
2019-01-27T04:14:48.631Z,1008.15
2019-01-27T04:15:48.615Z,1008.15
2019-01-27T04:16:48.600Z,1008.14
2019-01-27T04:17:48.585Z,1008.14
2019-01-27T04:18:48.570Z,1008.08
2019-01-27T04:19:48.556Z,1008.08
2019-01-27T04:20:48.542Z,1008.07
2019-01-27T04:21:48.531Z,1008.05
2019-01-27T04:22:48.513Z,1008.02
2019-01-27T04:23:48.499Z,1007.99
2019-01-27T04:24:48.485Z,1008.02
2019-01-27T04:25:48.472Z,1007.96
2019-01-27T04:26:48.456Z,1008.01
2019-01-27T04:27:48.442Z,1007.98
2019-01-27T04:28:48.427Z,1007.99
2019-01-27T04:29:48.413Z,1008
2019-01-27T04:30:48.402Z,1007.98
2019-01-27T04:31:48.386Z,1007.96
2019-01-27T04:32:48.371Z,1007.9
2019-01-27T04:33:48.356Z,1007.87
2019-01-27T04:34:48.343Z,1007.83
2019-01-27T04:35:48.327Z,1007.8
2019-01-27T04:36:48.314Z,1007.83
2019-01-27T04:37:48.297Z,1007.8
2019-01-27T04:38:48.284Z,1007.78
2019-01-27T04:39:48.280Z,1007.73
2019-01-27T04:40:48.258Z,1007.74
2019-01-27T04:41:48.240Z,1007.75
2019-01-27T04:42:48.227Z,1007.73
2019-01-27T04:43:48.212Z,1007.73
2019-01-27T04:44:48.197Z,1007.75
2019-01-27T04:45:48.183Z,1007.71
2019-01-27T04:46:48.179Z,1007.64
2019-01-27T04:47:48.155Z,1007.65
2019-01-27T04:48:48.140Z,1007.67
2019-01-27T04:49:48.125Z,1007.57
2019-01-27T04:50:48.111Z,1007.56
2019-01-27T04:51:48.097Z,1007.56
2019-01-27T04:52:48.082Z,1007.5
2019-01-27T04:53:48.067Z,1007.49
2019-01-27T04:54:48.056Z,1007.49
2019-01-27T04:55:48.040Z,1007.5
2019-01-27T04:56:48.026Z,1007.48
2019-01-27T04:57:48.019Z,1007.48
2019-01-27T04:58:47.997Z,1007.44
2019-01-27T04:59:47.982Z,1007.48
2019-01-27T05:00:47.971Z,1007.46
2019-01-27T05:01:47.954Z,1007.44
2019-01-27T05:02:47.938Z,1007.38
2019-01-27T05:03:47.925Z,1007.34
2019-01-27T05:04:47.910Z,1007.33
2019-01-27T05:05:47.897Z,1007.34
2019-01-27T05:06:47.882Z,1007.32
2019-01-27T05:07:47.868Z,1007.33
2019-01-27T05:08:47.853Z,1007.31
2019-01-27T05:09:47.839Z,1007.33
2019-01-27T05:10:47.823Z,1007.36
2019-01-27T05:11:47.811Z,1007.32
2019-01-27T05:12:47.796Z,1007.3
2019-01-27T05:13:47.783Z,1007.28
2019-01-27T05:14:47.768Z,1007.32
2019-01-27T05:15:47.752Z,1007.29
2019-01-27T05:16:47.739Z,1007.26
2019-01-27T05:17:47.724Z,1007.22
2019-01-27T05:18:47.710Z,1007.22
2019-01-27T05:19:47.696Z,1007.19
2019-01-27T05:20:47.682Z,1007.17
2019-01-27T05:21:47.667Z,1007.15
2019-01-27T05:22:47.653Z,1007.14
2019-01-27T05:23:47.638Z,1007.13
2019-01-27T05:24:47.623Z,1007.13
2019-01-27T05:25:47.610Z,1007.15
2019-01-27T05:26:47.596Z,1007.15
2019-01-27T05:27:47.585Z,1007.14
2019-01-27T05:28:47.567Z,1007.16
2019-01-27T05:29:47.552Z,1007.14
2019-01-27T05:30:47.538Z,1007.13
2019-01-27T05:31:47.527Z,1007.11
2019-01-27T05:32:47.511Z,1007.07
2019-01-27T05:33:47.495Z,1007.11
2019-01-27T05:34:47.489Z,1007.1
2019-01-27T05:35:47.468Z,1007.12
2019-01-27T05:36:47.457Z,1007.14
2019-01-27T05:37:47.438Z,1007.13
2019-01-27T05:38:47.424Z,1007.07
2019-01-27T05:39:47.416Z,1007.04
2019-01-27T05:40:47.395Z,1007.01
2019-01-27T05:41:47.381Z,1007.03
2019-01-27T05:42:47.368Z,1007
2019-01-27T05:43:47.352Z,1006.98
2019-01-27T05:44:47.337Z,1006.97
2019-01-27T05:45:47.323Z,1007.01
2019-01-27T05:46:47.309Z,1007.01
2019-01-27T05:47:47.296Z,1007.05
2019-01-27T05:48:47.281Z,1007.01
2019-01-27T05:49:47.269Z,1006.99
2019-01-27T05:50:47.250Z,1007.03
2019-01-27T05:51:47.242Z,1007
2019-01-27T05:52:47.222Z,1006.97
2019-01-27T05:53:47.207Z,1006.93
2019-01-27T05:54:47.192Z,1006.91
2019-01-27T05:55:47.178Z,1006.89
2019-01-27T05:56:47.165Z,1006.9
2019-01-27T05:57:47.149Z,1006.91
2019-01-27T05:58:47.135Z,1006.9
2019-01-27T05:59:47.122Z,1006.89
2019-01-27T06:00:47.106Z,1006.89
2019-01-27T06:01:47.092Z,1006.88
2019-01-27T06:02:47.076Z,1006.85
2019-01-27T06:03:47.062Z,1006.86
2019-01-27T06:04:47.049Z,1006.85
2019-01-27T06:05:47.033Z,1006.83
2019-01-27T06:06:47.018Z,1006.84
2019-01-27T06:07:47.006Z,1006.84
2019-01-27T06:08:46.989Z,1006.8
2019-01-27T06:09:46.975Z,1006.8
2019-01-27T06:10:46.961Z,1006.78
2019-01-27T06:11:46.947Z,1006.76
2019-01-27T06:12:46.932Z,1006.72
2019-01-27T06:13:46.917Z,1006.71
2019-01-27T06:14:46.902Z,1006.72
2019-01-27T06:15:46.888Z,1006.72
2019-01-27T06:16:46.873Z,1006.71
2019-01-27T06:17:46.858Z,1006.64
2019-01-27T06:18:46.845Z,1006.61
2019-01-27T06:19:46.829Z,1006.57
2019-01-27T06:20:46.817Z,1006.53
2019-01-27T06:21:46.800Z,1006.52
2019-01-27T06:22:46.794Z,1006.48
2019-01-27T06:23:46.770Z,1006.47
2019-01-27T06:24:46.757Z,1006.48
2019-01-27T06:25:46.771Z,1006.46
2019-01-27T06:26:46.729Z,1006.41
2019-01-27T06:27:46.714Z,1006.44
2019-01-27T06:28:46.698Z,1006.41
2019-01-27T06:29:46.685Z,1006.39
2019-01-27T06:30:46.669Z,1006.37
2019-01-27T06:31:46.656Z,1006.34
2019-01-27T06:32:46.682Z,1006.34
2019-01-27T06:33:46.627Z,1006.32
2019-01-27T06:34:46.611Z,1006.33
2019-01-27T06:35:46.598Z,1006.34
2019-01-27T06:36:46.583Z,1006.36
2019-01-27T06:37:46.569Z,1006.36
2019-01-27T06:38:46.554Z,1006.39
2019-01-27T06:39:46.542Z,1006.36
2019-01-27T06:40:46.526Z,1006.38
2019-01-27T06:41:46.509Z,1006.38
2019-01-27T06:42:46.496Z,1006.33
2019-01-27T06:43:46.482Z,1006.3
2019-01-27T06:44:46.469Z,1006.3
2019-01-27T06:45:46.453Z,1006.28
2019-01-27T06:46:46.439Z,1006.24
2019-01-27T06:47:46.425Z,1006.22
2019-01-27T06:48:46.408Z,1006.23
2019-01-27T06:49:46.395Z,1006.17
2019-01-27T06:50:46.381Z,1006.12
2019-01-27T06:51:46.366Z,1006.14
2019-01-27T06:52:46.351Z,1006.13
2019-01-27T06:53:46.338Z,1006.14
2019-01-27T06:54:46.323Z,1006.14
2019-01-27T06:55:46.310Z,1006.13
2019-01-27T06:56:46.292Z,1006.05
2019-01-27T06:57:46.280Z,1006.03
2019-01-27T06:58:46.266Z,1006.05
2019-01-27T06:59:46.251Z,1006.02
2019-01-27T07:00:46.237Z,1006.01
2019-01-27T07:01:46.223Z,1006
2019-01-27T07:02:46.208Z,1005.98
2019-01-27T07:03:46.192Z,1005.98
2019-01-27T07:04:46.179Z,1005.97
2019-01-27T07:05:46.164Z,1005.99
2019-01-27T07:06:46.150Z,1006
2019-01-27T07:07:46.135Z,1006
2019-01-27T07:08:46.121Z,1006
2019-01-27T07:09:46.107Z,1005.97
2019-01-27T07:10:46.092Z,1005.97
2019-01-27T07:11:46.080Z,1005.96
2019-01-27T07:12:46.063Z,1005.92
2019-01-27T07:13:46.050Z,1005.91
2019-01-27T07:14:46.034Z,1005.87
2019-01-27T07:15:46.020Z,1005.83
2019-01-27T07:16:46.006Z,1005.85
2019-01-27T07:17:45.992Z,1005.82
2019-01-27T07:18:45.977Z,1005.84
2019-01-27T07:19:45.963Z,1005.82
2019-01-27T07:20:45.947Z,1005.82
2019-01-27T07:21:45.933Z,1005.8
2019-01-27T07:22:45.921Z,1005.78
2019-01-27T07:23:45.905Z,1005.81
2019-01-27T07:24:45.891Z,1005.76
2019-01-27T07:25:45.875Z,1005.73
2019-01-27T07:26:45.863Z,1005.73
2019-01-27T07:27:45.848Z,1005.67
2019-01-27T07:28:45.834Z,1005.72
2019-01-27T07:29:45.819Z,1005.66
2019-01-27T07:30:45.805Z,1005.63
2019-01-27T07:31:45.791Z,1005.64
2019-01-27T07:32:45.776Z,1005.64
2019-01-27T07:33:45.761Z,1005.62
2019-01-27T07:34:45.748Z,1005.56
2019-01-27T07:35:45.734Z,1005.56
2019-01-27T07:36:45.717Z,1005.55
2019-01-27T07:37:45.705Z,1005.54
2019-01-27T07:38:45.691Z,1005.54
2019-01-27T07:39:45.676Z,1005.5
2019-01-27T07:40:45.663Z,1005.47
2019-01-27T07:41:45.649Z,1005.46
2019-01-27T07:42:45.634Z,1005.44
2019-01-27T07:43:45.619Z,1005.37
2019-01-27T07:44:45.605Z,1005.35
2019-01-27T07:45:45.591Z,1005.3
2019-01-27T07:46:45.577Z,1005.25
2019-01-27T07:47:45.561Z,1005.15
2019-01-27T07:48:45.549Z,1005.1
2019-01-27T07:49:45.535Z,1005.03
2019-01-27T07:50:45.521Z,1005
2019-01-27T07:51:45.506Z,1004.97
2019-01-27T07:52:45.493Z,1004.94
2019-01-27T07:53:45.479Z,1004.92
2019-01-27T07:54:45.464Z,1004.9
2019-01-27T07:55:45.452Z,1004.91
2019-01-27T07:56:45.437Z,1004.89
2019-01-27T07:57:45.422Z,1004.87
2019-01-27T07:58:45.408Z,1004.87
2019-01-27T07:59:45.395Z,1004.86
2019-01-27T08:00:45.381Z,1004.89
2019-01-27T08:01:45.368Z,1004.81
2019-01-27T08:02:45.352Z,1004.83
2019-01-27T08:03:45.341Z,1004.73
2019-01-27T08:04:45.327Z,1004.65
2019-01-27T08:05:45.313Z,1004.61
2019-01-27T08:06:45.299Z,1004.62
2019-01-27T08:07:45.286Z,1004.6
2019-01-27T08:08:45.271Z,1004.57
2019-01-27T08:09:45.257Z,1004.48
2019-01-27T08:10:45.244Z,1004.46
2019-01-27T08:11:45.230Z,1004.45
2019-01-27T08:12:45.217Z,1004.38
2019-01-27T08:13:45.203Z,1004.36
2019-01-27T08:14:45.190Z,1004.3
2019-01-27T08:15:45.175Z,1004.24
2019-01-27T08:16:45.163Z,1004.23
2019-01-27T08:17:45.150Z,1004.2
2019-01-27T08:18:45.137Z,1004.25
2019-01-27T08:19:45.123Z,1004.29
2019-01-27T08:20:45.108Z,1004.34
2019-01-27T08:21:45.097Z,1004.4
2019-01-27T08:22:45.100Z,1004.45
2019-01-27T08:23:45.070Z,1004.43
2019-01-27T08:24:45.057Z,1004.45
2019-01-27T08:25:45.045Z,1004.43
2019-01-27T08:26:45.031Z,1004.49
2019-01-27T08:27:45.016Z,1004.48
2019-01-27T08:28:45.004Z,1004.45
2019-01-27T08:29:44.990Z,1004.43
2019-01-27T08:30:44.977Z,1004.41
2019-01-27T08:31:44.963Z,1004.4
2019-01-27T08:32:44.950Z,1004.4
2019-01-27T08:33:44.938Z,1004.35
2019-01-27T08:34:44.924Z,1004.31
2019-01-27T08:35:44.910Z,1004.27
2019-01-27T08:36:44.897Z,1004.25
2019-01-27T08:37:44.883Z,1004.18
2019-01-27T08:38:44.870Z,1004.21
2019-01-27T08:39:44.857Z,1004.17
2019-01-27T08:40:44.843Z,1004.1
2019-01-27T08:41:44.831Z,1004.08
2019-01-27T08:42:44.817Z,1004.03
2019-01-27T08:43:44.804Z,1004.03
2019-01-27T08:44:44.792Z,1003.98
2019-01-27T08:45:44.778Z,1003.99
2019-01-27T08:46:44.764Z,1003.98
2019-01-27T08:47:44.752Z,1003.97
2019-01-27T08:48:44.739Z,1003.94
2019-01-27T08:49:44.725Z,1003.89
2019-01-27T08:50:44.711Z,1003.91
2019-01-27T08:51:44.706Z,1003.85
2019-01-27T08:52:44.687Z,1003.8
2019-01-27T08:53:44.671Z,1003.71
2019-01-27T08:54:44.659Z,1003.69
2019-01-27T08:55:44.646Z,1003.63
2019-01-27T08:56:44.634Z,1003.59
2019-01-27T08:57:44.621Z,1003.52
2019-01-27T08:58:44.610Z,1003.52
2019-01-27T08:59:44.595Z,1003.55
2019-01-27T09:00:44.583Z,1003.48
2019-01-27T09:01:44.569Z,1003.5
2019-01-27T09:02:44.556Z,1003.49
2019-01-27T09:03:44.544Z,1003.51
2019-01-27T09:04:44.530Z,1003.51
2019-01-27T09:05:44.520Z,1003.5
2019-01-27T09:06:44.510Z,1003.51
2019-01-27T09:07:44.494Z,1003.48
2019-01-27T09:08:44.479Z,1003.49
2019-01-27T09:09:44.467Z,1003.48
2019-01-27T09:10:44.457Z,1003.45
2019-01-27T09:11:44.441Z,1003.39
2019-01-27T09:12:44.429Z,1003.34
2019-01-27T09:13:44.416Z,1003.31
2019-01-27T09:14:44.406Z,1003.3
2019-01-27T09:15:44.390Z,1003.26
2019-01-27T09:16:44.379Z,1003.3
2019-01-27T09:17:44.366Z,1003.27
2019-01-27T09:18:44.353Z,1003.28
2019-01-27T09:19:44.340Z,1003.23
2019-01-27T09:20:44.329Z,1003.3
2019-01-27T09:21:44.316Z,1003.29
2019-01-27T09:22:44.304Z,1003.29
2019-01-27T09:23:44.291Z,1003.21
2019-01-27T09:24:44.282Z,1003.15
2019-01-27T09:25:44.265Z,1003.1
2019-01-27T09:26:44.256Z,1003.04
2019-01-27T09:27:44.241Z,1002.98
2019-01-27T09:28:44.229Z,1002.82
2019-01-27T09:29:44.215Z,1002.76
2019-01-27T09:30:44.203Z,1002.67
2019-01-27T09:31:44.190Z,1002.57
2019-01-27T09:32:44.179Z,1002.56
2019-01-27T09:33:44.166Z,1002.59
2019-01-27T09:34:44.154Z,1002.56
2019-01-27T09:35:44.142Z,1002.56
2019-01-27T09:36:44.130Z,1002.53
2019-01-27T09:37:44.117Z,1002.48
2019-01-27T09:38:44.105Z,1002.39
2019-01-27T09:39:44.097Z,1002.27
2019-01-27T09:40:44.082Z,1002.23
2019-01-27T09:41:44.070Z,1002.2
2019-01-27T09:42:44.060Z,1002.18
2019-01-27T09:43:44.046Z,1002.16
2019-01-27T09:44:44.035Z,1002.14
2019-01-27T09:45:44.023Z,1002.2
2019-01-27T09:46:44.011Z,1002.21
2019-01-27T09:47:43.999Z,1002.27
2019-01-27T09:48:43.987Z,1002.24
2019-01-27T09:49:43.976Z,1002.25
2019-01-27T09:50:43.964Z,1002.26
2019-01-27T09:51:43.952Z,1002.26
2019-01-27T09:52:43.942Z,1002.25
2019-01-27T09:53:43.930Z,1002.24
2019-01-27T09:54:43.919Z,1002.22
2019-01-27T09:55:44.107Z,1002.21
2019-01-27T09:56:43.895Z,1002.23
2019-01-27T09:57:43.884Z,1002.15
2019-01-27T09:58:43.872Z,1002.08
2019-01-27T09:59:43.861Z,1002.03
2019-01-27T10:00:43.849Z,1001.99
2019-01-27T10:01:43.837Z,1001.99
2019-01-27T10:02:43.825Z,1001.93
2019-01-27T10:03:43.814Z,1001.96
2019-01-27T10:04:43.804Z,1001.93
2019-01-27T10:05:43.793Z,1001.84
2019-01-27T10:06:43.789Z,1001.81
2019-01-27T10:07:43.769Z,1001.7
2019-01-27T10:08:43.757Z,1001.58
2019-01-27T10:09:43.748Z,1001.55
2019-01-27T10:10:43.736Z,1001.53
2019-01-27T10:11:43.726Z,1001.51
2019-01-27T10:12:43.714Z,1001.49
2019-01-27T10:13:43.702Z,1001.49
2019-01-27T10:14:43.691Z,1001.49
2019-01-27T10:15:43.681Z,1001.47
2019-01-27T10:16:43.669Z,1001.5
2019-01-27T10:17:43.657Z,1001.51
2019-01-27T10:18:43.656Z,1001.54
2019-01-27T10:19:43.635Z,1001.52
2019-01-27T10:20:43.625Z,1001.49
2019-01-27T10:21:43.614Z,1001.56
2019-01-27T10:22:43.603Z,1001.56
2019-01-27T10:23:43.592Z,1001.56
2019-01-27T10:24:43.581Z,1001.61
2019-01-27T10:25:43.570Z,1001.57
2019-01-27T10:26:43.560Z,1001.53
2019-01-27T10:27:43.549Z,1001.56
2019-01-27T10:28:43.538Z,1001.53
2019-01-27T10:29:43.526Z,1001.49
2019-01-27T10:30:43.516Z,1001.51
2019-01-27T10:31:43.504Z,1001.5
2019-01-27T10:32:43.494Z,1001.44
2019-01-27T10:33:43.483Z,1001.43
2019-01-27T10:34:43.472Z,1001.39
2019-01-27T10:35:43.460Z,1001.34
2019-01-27T10:36:43.450Z,1001.26
2019-01-27T10:37:43.440Z,1001.2
2019-01-27T10:38:43.429Z,1001.19
2019-01-27T10:39:43.418Z,1001.16
2019-01-27T10:40:43.407Z,1001.11
2019-01-27T10:41:43.395Z,1001.15
2019-01-27T10:42:43.385Z,1001.23
2019-01-27T10:43:43.373Z,1001.28
2019-01-27T10:44:43.363Z,1001.27
2019-01-27T10:45:43.353Z,1001.28
2019-01-27T10:46:43.341Z,1001.31
2019-01-27T10:47:43.332Z,1001.31
2019-01-27T10:48:43.320Z,1001.33
2019-01-27T10:49:43.310Z,1001.37
2019-01-27T10:50:43.299Z,1001.4
2019-01-27T10:51:43.288Z,1001.46
2019-01-27T10:52:43.279Z,1001.4
2019-01-27T10:53:43.264Z,1001.39
2019-01-27T10:54:43.255Z,1001.41
2019-01-27T10:55:43.245Z,1001.44
2019-01-27T10:56:43.233Z,1001.44
2019-01-27T10:57:43.231Z,1001.44
2019-01-27T10:58:43.212Z,1001.44
2019-01-27T10:59:43.201Z,1001.42
2019-01-27T11:00:43.191Z,1001.37
2019-01-27T11:01:43.179Z,1001.39
2019-01-27T11:02:43.168Z,1001.37
2019-01-27T11:03:43.158Z,1001.38
2019-01-27T11:04:43.145Z,1001.31
2019-01-27T11:05:43.135Z,1001.35
2019-01-27T11:06:43.133Z,1001.29
2019-01-27T11:07:43.112Z,1001.3
2019-01-27T11:08:43.102Z,1001.31
2019-01-27T11:09:43.091Z,1001.27
2019-01-27T11:10:43.080Z,1001.3
2019-01-27T11:11:43.075Z,1001.31
2019-01-27T11:12:43.059Z,1001.31
2019-01-27T11:13:43.048Z,1001.36
2019-01-27T11:14:43.037Z,1001.39
2019-01-27T11:15:43.026Z,1001.4
2019-01-27T11:16:43.014Z,1001.38
2019-01-27T11:17:43.006Z,1001.36
2019-01-27T11:18:42.995Z,1001.36
2019-01-27T11:19:42.980Z,1001.35
2019-01-27T11:20:42.970Z,1001.3
2019-01-27T11:21:42.959Z,1001.22
2019-01-27T11:22:42.947Z,1001.26
2019-01-27T11:23:42.936Z,1001.22
2019-01-27T11:24:42.924Z,1001.2
2019-01-27T11:25:42.913Z,1001.15
2019-01-27T11:26:42.904Z,1001.15
2019-01-27T11:27:42.891Z,1001.15
2019-01-27T11:28:42.880Z,1001.09
2019-01-27T11:29:42.871Z,1001.04
2019-01-27T11:30:42.857Z,1000.97
2019-01-27T11:31:42.851Z,1000.95
2019-01-27T11:32:42.836Z,1000.89
2019-01-27T11:33:42.824Z,1000.85
2019-01-27T11:34:42.814Z,1000.78
2019-01-27T11:35:42.802Z,1000.76
2019-01-27T11:36:42.795Z,1000.68
2019-01-27T11:37:42.778Z,1000.66
2019-01-27T11:38:42.769Z,1000.56
2019-01-27T11:39:42.758Z,1000.56
2019-01-27T11:40:42.746Z,1000.56
2019-01-27T11:41:42.736Z,1000.62
2019-01-27T11:42:42.724Z,1000.62
2019-01-27T11:43:42.714Z,1000.53
2019-01-27T11:44:42.702Z,1000.45
2019-01-27T11:45:42.692Z,1000.4
2019-01-27T11:46:42.680Z,1000.28
2019-01-27T11:47:42.670Z,1000.23
2019-01-27T11:48:42.658Z,1000.17
2019-01-27T11:49:42.648Z,1000.1
2019-01-27T11:50:42.638Z,1000.1
2019-01-27T11:51:42.627Z,1000.15
2019-01-27T11:52:42.615Z,1000.21
2019-01-27T11:53:42.605Z,1000.31
2019-01-27T11:54:42.595Z,1000.32
2019-01-27T11:55:42.582Z,1000.35
2019-01-27T11:56:42.572Z,1000.34
2019-01-27T11:57:42.569Z,1000.41
2019-01-27T11:58:42.550Z,1000.36
2019-01-27T11:59:42.540Z,1000.4
2019-01-27T12:00:42.529Z,1000.42
2019-01-27T12:01:42.519Z,1000.44
2019-01-27T12:02:46.496Z,1000.41
2019-01-27T12:03:42.497Z,1000.37
2019-01-27T12:04:42.486Z,1000.35
2019-01-27T12:05:42.476Z,1000.3
2019-01-27T12:06:42.465Z,1000.21
2019-01-27T12:07:42.469Z,1000.22
2019-01-27T12:08:42.443Z,1000.18
2019-01-27T12:09:42.435Z,1000.13